sensor_id;sensor_type;location;lat;lon;timestamp;pressure;altitude;pressure_sealevel;temperature;humidity
11444;BME280;5778;47.856;12.154;2023-04-08T00:01:44;96353.88;;;6.88;100.00
11444;BME280;5778;47.856;12.154;2023-04-08T00:04:11;96354.44;;;6.90;100.00
11444;BME280;5778;47.856;12.154;2023-04-08T00:06:40;96360.22;;;6.87;100.00
11444;BME280;5778;47.856;12.154;2023-04-08T00:09:07;96354.53;;;6.83;100.00
11444;BME280;5778;47.856;12.154;2023-04-08T00:11:34;96354.31;;;6.73;100.00
11444;BME280;5778;47.856;12.154;2023-04-08T00:14:03;96357.63;;;6.57;100.00
11444;BME280;5778;47.856;12.154;2023-04-08T00:16:31;96362.44;;;6.60;100.00
11444;BME280;5778;47.856;12.154;2023-04-08T00:18:58;96358.19;;;6.59;100.00
11444;BME280;5778;47.856;12.154;2023-04-08T00:21:24;96358.06;;;6.54;100.00
11444;BME280;5778;47.856;12.154;2023-04-08T00:23:51;96371.25;;;6.43;100.00
11444;BME280;5778;47.856;12.154;2023-04-08T00:26:20;96363.13;;;6.26;100.00
11444;BME280;5778;47.856;12.154;2023-04-08T00:28:47;96364.09;;;6.14;100.00
11444;BME280;5778;47.856;12.154;2023-04-08T00:31:16;96363.66;;;6.17;100.00
11444;BME280;5778;47.856;12.154;2023-04-08T00:33:43;96363.53;;;6.12;100.00
11444;BME280;5778;47.856;12.154;2023-04-08T00:36:10;96368.31;;;6.03;100.00
11444;BME280;5778;47.856;12.154;2023-04-08T00:38:38;96374.13;;;5.94;100.00
11444;BME280;5778;47.856;12.154;2023-04-08T00:41:05;96374.25;;;5.81;100.00
11444;BME280;5778;47.856;12.154;2023-04-08T00:43:33;96381.16;;;5.82;100.00
11444;BME280;5778;47.856;12.154;2023-04-08T00:46:01;96371.91;;;5.73;100.00
11444;BME280;5778;47.856;12.154;2023-04-08T00:48:30;96371.16;;;5.66;100.00
11444;BME280;5778;47.856;12.154;2023-04-08T00:50:57;96374.75;;;5.71;100.00
11444;BME280;5778;47.856;12.154;2023-04-08T00:53:24;96379.94;;;5.42;100.00
11444;BME280;5778;47.856;12.154;2023-04-08T00:55:50;96382.28;;;5.32;100.00
11444;BME280;5778;47.856;12.154;2023-04-08T00:58:18;96376.94;;;5.38;100.00
11444;BME280;5778;47.856;12.154;2023-04-08T01:00:51;96378.91;;;5.25;100.00
11444;BME280;5778;47.856;12.154;2023-04-08T01:03:26;96377.56;;;4.91;100.00
11444;BME280;5778;47.856;12.154;2023-04-08T01:06:05;96379.28;;;5.04;100.00
11444;BME280;5778;47.856;12.154;2023-04-08T01:08:34;96374.50;;;5.19;100.00
11444;BME280;5778;47.856;12.154;2023-04-08T01:11:05;96378.75;;;5.20;100.00
11444;BME280;5778;47.856;12.154;2023-04-08T01:13:39;96373.31;;;5.15;100.00
11444;BME280;5778;47.856;12.154;2023-04-08T01:16:08;96376.09;;;5.20;100.00
11444;BME280;5778;47.856;12.154;2023-04-08T01:18:37;96378.44;;;5.28;100.00
11444;BME280;5778;47.856;12.154;2023-04-08T01:21:06;96374.81;;;5.29;100.00
11444;BME280;5778;47.856;12.154;2023-04-08T01:23:42;96378.44;;;5.28;100.00
11444;BME280;5778;47.856;12.154;2023-04-08T01:26:22;96381.56;;;5.43;100.00
11444;BME280;5778;47.856;12.154;2023-04-08T01:28:52;96388.63;;;5.24;100.00
11444;BME280;5778;47.856;12.154;2023-04-08T01:31:21;96382.88;;;5.34;100.00
11444;BME280;5778;47.856;12.154;2023-04-08T01:33:50;96384.97;;;5.25;100.00
11444;BME280;5778;47.856;12.154;2023-04-08T01:36:20;96383.72;;;5.28;100.00
11444;BME280;5778;47.856;12.154;2023-04-08T01:38:47;96384.03;;;5.38;100.00
11444;BME280;5778;47.856;12.154;2023-04-08T01:41:17;96390.13;;;5.38;100.00
11444;BME280;5778;47.856;12.154;2023-04-08T01:43:47;96379.13;;;5.41;100.00
11444;BME280;5778;47.856;12.154;2023-04-08T01:46:14;96381.28;;;5.51;100.00
11444;BME280;5778;47.856;12.154;2023-04-08T01:48:41;96380.97;;;5.59;100.00
11444;BME280;5778;47.856;12.154;2023-04-08T01:51:10;96377.91;;;5.62;100.00
11444;BME280;5778;47.856;12.154;2023-04-08T01:53:37;96380.09;;;5.65;100.00
11444;BME280;5778;47.856;12.154;2023-04-08T01:56:06;96372.41;;;5.63;100.00
11444;BME280;5778;47.856;12.154;2023-04-08T01:58:40;96379.81;;;5.73;100.00
11444;BME280;5778;47.856;12.154;2023-04-08T02:01:10;96379.97;;;5.78;100.00
11444;BME280;5778;47.856;12.154;2023-04-08T02:03:37;96379.91;;;5.84;100.00
11444;BME280;5778;47.856;12.154;2023-04-08T02:06:06;96376.69;;;5.82;100.00
11444;BME280;5778;47.856;12.154;2023-04-08T02:08:33;96378.09;;;5.85;100.00
11444;BME280;5778;47.856;12.154;2023-04-08T02:11:01;96378.09;;;5.85;100.00
11444;BME280;5778;47.856;12.154;2023-04-08T02:13:30;96377.50;;;5.83;100.00
11444;BME280;5778;47.856;12.154;2023-04-08T02:16:03;96384.75;;;5.87;100.00
11444;BME280;5778;47.856;12.154;2023-04-08T02:18:33;96382.78;;;5.83;100.00
11444;BME280;5778;47.856;12.154;2023-04-08T02:21:07;96374.78;;;5.89;100.00
11444;BME280;5778;47.856;12.154;2023-04-08T02:23:37;96376.63;;;5.89;100.00
11444;BME280;5778;47.856;12.154;2023-04-08T02:26:06;96375.81;;;5.88;100.00
11444;BME280;5778;47.856;12.154;2023-04-08T02:28:35;96376.97;;;5.92;100.00
11444;BME280;5778;47.856;12.154;2023-04-08T02:31:05;96377.34;;;5.96;100.00
11444;BME280;5778;47.856;12.154;2023-04-08T02:33:34;96382.63;;;5.96;100.00
11444;BME280;5778;47.856;12.154;2023-04-08T02:36:02;96379.75;;;5.97;100.00
11444;BME280;5778;47.856;12.154;2023-04-08T02:38:30;96384.00;;;5.98;100.00
11444;BME280;5778;47.856;12.154;2023-04-08T02:40:57;96386.19;;;6.01;100.00
11444;BME280;5778;47.856;12.154;2023-04-08T02:43:24;96378.28;;;6.01;100.00
11444;BME280;5778;47.856;12.154;2023-04-08T02:45:56;96390.47;;;6.02;100.00
11444;BME280;5778;47.856;12.154;2023-04-08T02:48:25;96388.81;;;6.01;100.00
11444;BME280;5778;47.856;12.154;2023-04-08T02:50:52;96387.56;;;6.04;100.00
11444;BME280;5778;47.856;12.154;2023-04-08T02:53:21;96380.84;;;6.08;100.00
11444;BME280;5778;47.856;12.154;2023-04-08T02:55:48;96378.88;;;6.03;100.00
11444;BME280;5778;47.856;12.154;2023-04-08T02:58:14;96388.63;;;6.03;100.00
11444;BME280;5778;47.856;12.154;2023-04-08T03:00:41;96379.91;;;6.02;100.00
11444;BME280;5778;47.856;12.154;2023-04-08T03:03:08;96378.66;;;6.05;100.00
11444;BME280;5778;47.856;12.154;2023-04-08T03:05:37;96374.63;;;6.02;100.00
11444;BME280;5778;47.856;12.154;2023-04-08T03:08:04;96378.88;;;6.03;100.00
11444;BME280;5778;47.856;12.154;2023-04-08T03:10:31;96385.41;;;6.01;100.00
11444;BME280;5778;47.856;12.154;2023-04-08T03:12:59;96388.47;;;5.98;100.00
11444;BME280;5778;47.856;12.154;2023-04-08T03:15:26;96393.38;;;5.94;100.00
11444;BME280;5778;47.856;12.154;2023-04-08T03:17:53;96389.97;;;5.94;100.00
11444;BME280;5778;47.856;12.154;2023-04-08T03:20:20;96399.03;;;5.98;100.00
11444;BME280;5778;47.856;12.154;2023-04-08T03:22:49;96392.50;;;6.00;100.00
11444;BME280;5778;47.856;12.154;2023-04-08T03:25:16;96394.50;;;6.05;100.00
11444;BME280;5778;47.856;12.154;2023-04-08T03:27:43;96389.50;;;5.97;100.00
11444;BME280;5778;47.856;12.154;2023-04-08T03:30:10;96394.41;;;5.93;100.00
11444;BME280;5778;47.856;12.154;2023-04-08T03:32:37;96396.84;;;5.95;100.00
11444;BME280;5778;47.856;12.154;2023-04-08T03:35:04;96392.34;;;5.95;100.00
11444;BME280;5778;47.856;12.154;2023-04-08T03:37:31;96391.78;;;5.93;100.00
11444;BME280;5778;47.856;12.154;2023-04-08T03:40:00;96394.28;;;5.88;100.00
11444;BME280;5778;47.856;12.154;2023-04-08T03:42:26;96395.88;;;5.89;100.00
11444;BME280;5778;47.856;12.154;2023-04-08T03:44:53;96397.50;;;5.90;100.00
11444;BME280;5778;47.856;12.154;2023-04-08T03:47:20;96399.91;;;5.92;100.00
11444;BME280;5778;47.856;12.154;2023-04-08T03:49:47;96394.84;;;5.90;100.00
11444;BME280;5778;47.856;12.154;2023-04-08T03:52:14;96404.81;;;5.88;100.00
11444;BME280;5778;47.856;12.154;2023-04-08T03:54:41;96406.00;;;5.92;100.00
11444;BME280;5778;47.856;12.154;2023-04-08T03:57:10;96402.56;;;5.92;100.00
11444;BME280;5778;47.856;12.154;2023-04-08T03:59:37;96401.75;;;5.91;100.00
11444;BME280;5778;47.856;12.154;2023-04-08T04:02:05;96400.94;;;5.91;100.00
11444;BME280;5778;47.856;12.154;2023-04-08T04:04:33;96399.34;;;5.90;100.00
11444;BME280;5778;47.856;12.154;2023-04-08T04:07:01;96399.75;;;5.87;100.00
11444;BME280;5778;47.856;12.154;2023-04-08T04:09:28;96409.91;;;5.90;100.00
11444;BME280;5778;47.856;12.154;2023-04-08T04:11:55;96411.34;;;5.86;100.00
11444;BME280;5778;47.856;12.154;2023-04-08T04:14:27;96414.56;;;5.88;100.00
11444;BME280;5778;47.856;12.154;2023-04-08T04:16:54;96413.47;;;5.95;100.00
11444;BME280;5778;47.856;12.154;2023-04-08T04:19:21;96418.38;;;5.92;100.00
11444;BME280;5778;47.856;12.154;2023-04-08T04:21:48;96414.16;;;5.91;100.00
11444;BME280;5778;47.856;12.154;2023-04-08T04:24:15;96413.31;;;5.90;100.00
11444;BME280;5778;47.856;12.154;2023-04-08T04:26:42;96421.03;;;5.92;100.00
11444;BME280;5778;47.856;12.154;2023-04-08T04:29:09;96416.94;;;5.96;100.00
11444;BME280;5778;47.856;12.154;2023-04-08T04:31:38;96422.22;;;5.96;100.00
11444;BME280;5778;47.856;12.154;2023-04-08T04:34:07;96421.63;;;5.94;100.00
11444;BME280;5778;47.856;12.154;2023-04-08T04:36:34;96427.69;;;5.94;100.00
11444;BME280;5778;47.856;12.154;2023-04-08T04:39:01;96420.00;;;5.93;100.00
11444;BME280;5778;47.856;12.154;2023-04-08T04:41:27;96419.00;;;5.94;100.00
11444;BME280;5778;47.856;12.154;2023-04-08T04:43:55;96426.81;;;6.00;100.00
11444;BME280;5778;47.856;12.154;2023-04-08T04:46:22;96425.56;;;6.03;100.00
11444;BME280;5778;47.856;12.154;2023-04-08T04:48:52;96426.38;;;6.03;100.00
11444;BME280;5778;47.856;12.154;2023-04-08T04:51:19;96425.28;;;6.11;100.00
11444;BME280;5778;47.856;12.154;2023-04-08T04:53:46;96427.47;;;6.14;100.00
11444;BME280;5778;47.856;12.154;2023-04-08T04:56:13;96428.84;;;6.16;100.00
11444;BME280;5778;47.856;12.154;2023-04-08T04:58:40;96433.09;;;6.17;100.00
11444;BME280;5778;47.856;12.154;2023-04-08T05:01:07;96435.09;;;6.22;100.00
11444;BME280;5778;47.856;12.154;2023-04-08T05:03:34;96443.16;;;6.27;100.00
11444;BME280;5778;47.856;12.154;2023-04-08T05:06:02;96433.19;;;6.29;100.00
11444;BME280;5778;47.856;12.154;2023-04-08T05:08:29;96434.78;;;6.30;100.00
11444;BME280;5778;47.856;12.154;2023-04-08T05:10:57;96435.13;;;6.33;100.00
11444;BME280;5778;47.856;12.154;2023-04-08T05:13:27;96437.78;;;6.33;100.00
11444;BME280;5778;47.856;12.154;2023-04-08T05:15:55;96439.28;;;6.29;100.00
11444;BME280;5778;47.856;12.154;2023-04-08T05:18:22;96446.81;;;6.26;100.00
11444;BME280;5778;47.856;12.154;2023-04-08T05:20:49;96450.47;;;6.25;100.00
11444;BME280;5778;47.856;12.154;2023-04-08T05:23:28;96447.34;;;6.16;100.00
11444;BME280;5778;47.856;12.154;2023-04-08T05:25:54;96448.22;;;6.10;100.00
11444;BME280;5778;47.856;12.154;2023-04-08T05:28:21;96454.03;;;6.01;100.00
11444;BME280;5778;47.856;12.154;2023-04-08T05:30:50;96449.63;;;5.95;100.00
11444;BME280;5778;47.856;12.154;2023-04-08T05:36:41;96455.63;;;6.02;100.00
11444;BME280;5778;47.856;12.154;2023-04-08T05:39:09;96455.41;;;6.03;100.00
11444;BME280;5778;47.856;12.154;2023-04-08T05:41:36;96453.16;;;6.07;100.00
11444;BME280;5778;47.856;12.154;2023-04-08T05:44:30;96459.34;;;6.12;100.00
11444;BME280;5778;47.856;12.154;2023-04-08T05:46:57;96461.44;;;6.10;100.00
11444;BME280;5778;47.856;12.154;2023-04-08T05:49:24;96463.63;;;6.13;100.00
11444;BME280;5778;47.856;12.154;2023-04-08T05:51:51;96461.94;;;6.19;100.00
11444;BME280;5778;47.856;12.154;2023-04-08T05:54:36;96470.31;;;6.16;100.00
11444;BME280;5778;47.856;12.154;2023-04-08T05:57:04;96470.75;;;6.13;100.00
11444;BME280;5778;47.856;12.154;2023-04-08T05:59:31;96474.41;;;6.12;100.00
11444;BME280;5778;47.856;12.154;2023-04-08T06:01:58;96474.41;;;6.12;100.00
11444;BME280;5778;47.856;12.154;2023-04-08T06:04:29;96471.16;;;6.10;100.00
11444;BME280;5778;47.856;12.154;2023-04-08T06:06:57;96471.78;;;6.12;100.00
11444;BME280;5778;47.856;12.154;2023-04-08T06:09:26;96479.91;;;6.10;100.00
11444;BME280;5778;47.856;12.154;2023-04-08T06:11:55;96479.69;;;6.12;100.00
11444;BME280;5778;47.856;12.154;2023-04-08T06:14:31;96475.00;;;6.14;100.00
11444;BME280;5778;47.856;12.154;2023-04-08T06:16:59;96478.59;;;6.19;100.00
11444;BME280;5778;47.856;12.154;2023-04-08T06:19:26;96477.00;;;6.18;100.00
11444;BME280;5778;47.856;12.154;2023-04-08T06:21:53;96479.84;;;6.17;100.00
11444;BME280;5778;47.856;12.154;2023-04-08T06:24:24;96482.13;;;6.13;100.00
11444;BME280;5778;47.856;12.154;2023-04-08T06:26:52;96476.59;;;6.15;100.00
11444;BME280;5778;47.856;12.154;2023-04-08T06:29:21;96476.59;;;6.15;100.00
11444;BME280;5778;47.856;12.154;2023-04-08T06:31:48;96479.22;;;6.15;100.00
11444;BME280;5778;47.856;12.154;2023-04-08T06:34:31;96475.75;;;6.21;100.00
11444;BME280;5778;47.856;12.154;2023-04-08T06:36:58;96477.72;;;6.25;100.00
11444;BME280;5778;47.856;12.154;2023-04-08T06:39:25;96485.41;;;6.27;100.00
11444;BME280;5778;47.856;12.154;2023-04-08T06:41:52;96484.88;;;6.36;100.00
11444;BME280;5778;47.856;12.154;2023-04-08T06:44:43;96490.59;;;6.33;100.00
11444;BME280;5778;47.856;12.154;2023-04-08T06:47:10;96491.41;;;6.34;100.00
11444;BME280;5778;47.856;12.154;2023-04-08T06:49:38;96487.75;;;6.35;100.00
11444;BME280;5778;47.856;12.154;2023-04-08T06:52:05;96491.50;;;6.45;100.00
11444;BME280;5778;47.856;12.154;2023-04-08T06:54:37;96491.09;;;6.42;100.00
11444;BME280;5778;47.856;12.154;2023-04-08T06:57:04;96497.00;;;6.44;100.00
11444;BME280;5778;47.856;12.154;2023-04-08T06:59:31;96498.13;;;6.48;100.00
11444;BME280;5778;47.856;12.154;2023-04-08T07:02:00;96490.34;;;6.53;100.00
11444;BME280;5778;47.856;12.154;2023-04-08T07:04:52;96493.59;;;6.55;100.00
11444;BME280;5778;47.856;12.154;2023-04-08T07:07:19;96493.59;;;6.55;100.00
11444;BME280;5778;47.856;12.154;2023-04-08T07:09:48;96491.31;;;6.58;100.00
11444;BME280;5778;47.856;12.154;2023-04-08T07:12:15;96495.78;;;6.58;100.00
11444;BME280;5778;47.856;12.154;2023-04-08T07:14:55;96492.78;;;6.54;100.00
11444;BME280;5778;47.856;12.154;2023-04-08T07:17:23;96497.28;;;6.54;100.00
11444;BME280;5778;47.856;12.154;2023-04-08T07:19:51;96496.88;;;6.50;100.00
11444;BME280;5778;47.856;12.154;2023-04-08T07:22:18;96499.53;;;6.50;100.00
11444;BME280;5778;47.856;12.154;2023-04-08T07:24:54;96504.16;;;6.55;100.00
11444;BME280;5778;47.856;12.154;2023-04-08T07:27:21;96498.75;;;6.50;100.00
11444;BME280;5778;47.856;12.154;2023-04-08T07:29:51;96500.91;;;6.53;100.00
11444;BME280;5778;47.856;12.154;2023-04-08T07:32:18;96504.16;;;6.55;100.00
11444;BME280;5778;47.856;12.154;2023-04-08T07:37:57;96506.34;;;6.58;100.00
11444;BME280;5778;47.856;12.154;2023-04-08T07:40:24;96514.41;;;6.63;100.00
11444;BME280;5778;47.856;12.154;2023-04-08T07:42:59;96510.88;;;6.69;100.00
11444;BME280;5778;47.856;12.154;2023-04-08T07:45:26;96514.56;;;6.68;100.00
11444;BME280;5778;47.856;12.154;2023-04-08T07:47:53;96521.31;;;6.64;100.00
11444;BME280;5778;47.856;12.154;2023-04-08T07:50:20;96523.91;;;6.52;100.00
11444;BME280;5778;47.856;12.154;2023-04-08T07:52:49;96522.06;;;6.53;100.00
11444;BME280;5778;47.856;12.154;2023-04-08T07:55:19;96522.50;;;6.50;100.00
11444;BME280;5778;47.856;12.154;2023-04-08T07:57:46;96524.28;;;6.38;100.00
11444;BME280;5778;47.856;12.154;2023-04-08T08:00:13;96530.16;;;6.40;100.00
11444;BME280;5778;47.856;12.154;2023-04-08T08:02:47;96529.13;;;6.41;100.00
11444;BME280;5778;47.856;12.154;2023-04-08T08:05:14;96531.31;;;6.44;100.00
11444;BME280;5778;47.856;12.154;2023-04-08T08:07:40;96530.47;;;6.32;100.00
11444;BME280;5778;47.856;12.154;2023-04-08T08:10:08;96533.97;;;6.44;100.00
11444;BME280;5778;47.856;12.154;2023-04-08T08:12:37;96531.81;;;6.34;100.00
11444;BME280;5778;47.856;12.154;2023-04-08T08:15:07;96525.91;;;6.39;100.00
11444;BME280;5778;47.856;12.154;2023-04-08T08:17:34;96536.88;;;6.36;100.00
11444;BME280;5778;47.856;12.154;2023-04-08T08:20:01;96534.91;;;6.31;100.00
11444;BME280;5778;47.856;12.154;2023-04-08T08:22:29;96536.59;;;6.26;100.00
11444;BME280;5778;47.856;12.154;2023-04-08T08:25:09;96538.50;;;6.19;100.00
11444;BME280;5778;47.856;12.154;2023-04-08T08:27:38;96543.94;;;6.24;100.00
11444;BME280;5778;47.856;12.154;2023-04-08T08:30:07;96543.78;;;6.19;100.00
11444;BME280;5778;47.856;12.154;2023-04-08T08:32:35;96545.47;;;6.13;100.00
11444;BME280;5778;47.856;12.154;2023-04-08T08:35:14;96551.69;;;6.19;100.00
11444;BME280;5778;47.856;12.154;2023-04-08T08:37:41;96546.19;;;6.02;100.00
11444;BME280;5778;47.856;12.154;2023-04-08T08:40:09;96545.97;;;6.04;100.00
11444;BME280;5778;47.856;12.154;2023-04-08T08:42:37;96549.47;;;5.98;100.00
11444;BME280;5778;47.856;12.154;2023-04-08T08:45:07;96549.06;;;6.01;100.00
11444;BME280;5778;47.856;12.154;2023-04-08T08:47:34;96546.84;;;5.98;100.00
11444;BME280;5778;47.856;12.154;2023-04-08T08:50:01;96559.88;;;5.93;100.00
11444;BME280;5778;47.856;12.154;2023-04-08T08:52:28;96563.28;;;6.00;100.00
11444;BME280;5778;47.856;12.154;2023-04-08T08:54:58;96568.25;;;5.90;100.00
11444;BME280;5778;47.856;12.154;2023-04-08T08:57:25;96564.41;;;5.86;100.00
11444;BME280;5778;47.856;12.154;2023-04-08T08:59:54;96568.38;;;5.70;100.00
11444;BME280;5778;47.856;12.154;2023-04-08T09:02:25;96573.19;;;5.80;100.00
11444;BME280;5778;47.856;12.154;2023-04-08T09:04:58;96574.41;;;5.77;100.00
11444;BME280;5778;47.856;12.154;2023-04-08T09:07:26;96578.84;;;5.77;100.00
11444;BME280;5778;47.856;12.154;2023-04-08T09:09:54;96585.78;;;5.78;100.00
11444;BME280;5778;47.856;12.154;2023-04-08T09:12:22;96581.72;;;5.75;100.00
11444;BME280;5778;47.856;12.154;2023-04-08T09:15:12;96591.00;;;5.84;100.00
11444;BME280;5778;47.856;12.154;2023-04-08T09:17:39;96590.91;;;5.97;100.00
11444;BME280;5778;47.856;12.154;2023-04-08T09:20:08;96597.31;;;6.08;100.00
11444;BME280;5778;47.856;12.154;2023-04-08T09:22:58;96605.81;;;6.10;100.00
11444;BME280;5778;47.856;12.154;2023-04-08T09:25:26;96605.94;;;5.97;100.00
11444;BME280;5778;47.856;12.154;2023-04-08T09:27:53;96607.22;;;5.88;100.00
11444;BME280;5778;47.856;12.154;2023-04-08T09:30:25;96604.44;;;5.83;100.00
11444;BME280;5778;47.856;12.154;2023-04-08T09:32:54;96610.38;;;5.72;100.00
11444;BME280;5778;47.856;12.154;2023-04-08T09:35:23;96596.69;;;5.57;100.00
11444;BME280;5778;47.856;12.154;2023-04-08T09:37:50;96608.28;;;5.56;100.00
11444;BME280;5778;47.856;12.154;2023-04-08T09:40:17;96603.19;;;5.54;100.00
11444;BME280;5778;47.856;12.154;2023-04-08T09:42:45;96611.00;;;5.36;100.00
11444;BME280;5778;47.856;12.154;2023-04-08T09:45:16;96605.34;;;5.33;100.00
11444;BME280;5778;47.856;12.154;2023-04-08T09:47:54;96611.69;;;5.25;100.00
11444;BME280;5778;47.856;12.154;2023-04-08T09:50:26;96610.44;;;5.28;100.00
11444;BME280;5778;47.856;12.154;2023-04-08T09:52:59;96613.25;;;5.33;100.00
11444;BME280;5778;47.856;12.154;2023-04-08T09:55:29;96609.38;;;5.42;100.00
11444;BME280;5778;47.856;12.154;2023-04-08T09:58:02;96614.00;;;5.46;100.00
11444;BME280;5778;47.856;12.154;2023-04-08T10:00:33;96614.97;;;5.52;100.00
11444;BME280;5778;47.856;12.154;2023-04-08T10:03:08;96616.03;;;5.44;100.00
11444;BME280;5778;47.856;12.154;2023-04-08T10:05:37;96613.97;;;5.53;100.00
11444;BME280;5778;47.856;12.154;2023-04-08T10:08:05;96619.75;;;5.68;100.00
11444;BME280;5778;47.856;12.154;2023-04-08T10:10:33;96619.09;;;5.72;100.00
11444;BME280;5778;47.856;12.154;2023-04-08T10:13:02;96617.28;;;5.73;100.00
11444;BME280;5778;47.856;12.154;2023-04-08T10:15:30;96619.47;;;5.76;100.00
11444;BME280;5778;47.856;12.154;2023-04-08T10:20:55;96622.31;;;5.81;100.00
11444;BME280;5778;47.856;12.154;2023-04-08T10:23:52;96614.94;;;5.58;100.00
11444;BME280;5778;47.856;12.154;2023-04-08T10:26:38;96624.69;;;5.58;100.00
11444;BME280;5778;47.856;12.154;2023-04-08T10:32:08;96623.56;;;5.72;100.00
11444;BME280;5778;47.856;12.154;2023-04-08T10:34:53;96617.34;;;5.60;100.00
11444;BME280;5778;47.856;12.154;2023-04-08T10:37:21;96619.19;;;5.59;100.00
11444;BME280;5778;47.856;12.154;2023-04-08T10:39:49;96617.44;;;5.78;100.00
11444;BME280;5778;47.856;12.154;2023-04-08T10:42:17;96615.78;;;5.83;100.00
11444;BME280;5778;47.856;12.154;2023-04-08T10:44:44;96621.06;;;5.77;100.00
11444;BME280;5778;47.856;12.154;2023-04-08T10:47:12;96617.47;;;6.02;100.00
11444;BME280;5778;47.856;12.154;2023-04-08T10:49:39;96620.16;;;5.96;100.00
11444;BME280;5778;47.856;12.154;2023-04-08T10:52:08;96625.84;;;6.17;100.00
11444;BME280;5778;47.856;12.154;2023-04-08T10:54:45;96616.59;;;6.08;100.00
11444;BME280;5778;47.856;12.154;2023-04-08T10:57:12;96619.50;;;6.00;100.00
11444;BME280;5778;47.856;12.154;2023-04-08T10:59:39;96618.38;;;6.14;100.00
11444;BME280;5778;47.856;12.154;2023-04-08T11:02:12;96617.50;;;6.20;100.00
11444;BME280;5778;47.856;12.154;2023-04-08T11:04:40;96623.44;;;6.16;100.00
11444;BME280;5778;47.856;12.154;2023-04-08T11:07:07;96614.31;;;6.36;100.00
11444;BME280;5778;47.856;12.154;2023-04-08T11:09:34;96616.22;;;6.29;100.00
11444;BME280;5778;47.856;12.154;2023-04-08T11:12:03;96618.69;;;6.24;100.00
11444;BME280;5778;47.856;12.154;2023-04-08T11:14:30;96616.81;;;6.07;100.00
11444;BME280;5778;47.856;12.154;2023-04-08T11:16:58;96622.31;;;5.81;100.00
11444;BME280;5778;47.856;12.154;2023-04-08T11:19:28;96624.91;;;5.87;100.00
11444;BME280;5778;47.856;12.154;2023-04-08T11:21:55;96624.94;;;5.74;100.00
11444;BME280;5778;47.856;12.154;2023-04-08T11:24:24;96618.97;;;5.61;100.00
11444;BME280;5778;47.856;12.154;2023-04-08T11:26:51;96623.81;;;5.64;100.00
11444;BME280;5778;47.856;12.154;2023-04-08T11:29:21;96625.19;;;5.73;100.00
11444;BME280;5778;47.856;12.154;2023-04-08T11:31:50;96619.25;;;5.77;100.00
11444;BME280;5778;47.856;12.154;2023-04-08T11:34:21;96617.84;;;5.81;100.00
11444;BME280;5778;47.856;12.154;2023-04-08T11:36:48;96621.44;;;5.87;100.00
11444;BME280;5778;47.856;12.154;2023-04-08T11:39:15;96616.16;;;5.87;100.00
11444;BME280;5778;47.856;12.154;2023-04-08T11:41:42;96620.06;;;5.78;100.00
11444;BME280;5778;47.856;12.154;2023-04-08T11:44:09;96617.47;;;5.71;100.00
11444;BME280;5778;47.856;12.154;2023-04-08T11:46:37;96615.41;;;5.80;100.00
11444;BME280;5778;47.856;12.154;2023-04-08T11:49:07;96609.66;;;5.89;100.00
11444;BME280;5778;47.856;12.154;2023-04-08T11:51:53;96602.34;;;5.91;100.00
11444;BME280;5778;47.856;12.154;2023-04-08T11:54:27;96611.00;;;5.98;100.00
11444;BME280;5778;47.856;12.154;2023-04-08T11:56:54;96607.22;;;5.88;100.00
11444;BME280;5778;47.856;12.154;2023-04-08T11:59:24;96613.06;;;5.96;100.00
11444;BME280;5778;47.856;12.154;2023-04-08T12:01:52;96616.31;;;5.92;100.00
11444;BME280;5778;47.856;12.154;2023-04-08T12:04:19;96609.16;;;5.99;100.00
11444;BME280;5778;47.856;12.154;2023-04-08T12:06:46;96612.56;;;6.06;100.00
11444;BME280;5778;47.856;12.154;2023-04-08T12:09:14;96618.63;;;6.06;100.00
11444;BME280;5778;47.856;12.154;2023-04-08T12:11:42;96618.72;;;6.00;100.00
11444;BME280;5778;47.856;12.154;2023-04-08T12:14:09;96618.41;;;6.08;100.00
11444;BME280;5778;47.856;12.154;2023-04-08T12:16:36;96612.72;;;6.11;100.00
11444;BME280;5778;47.856;12.154;2023-04-08T12:19:05;96623.88;;;6.13;100.00
11444;BME280;5778;47.856;12.154;2023-04-08T12:21:32;96621.34;;;6.00;100.00
11444;BME280;5778;47.856;12.154;2023-04-08T12:24:00;96621.56;;;5.98;100.00
11444;BME280;5778;47.856;12.154;2023-04-08T12:26:27;96612.06;;;5.91;100.00
11444;BME280;5778;47.856;12.154;2023-04-08T12:28:55;96609.81;;;5.94;100.00
11444;BME280;5778;47.856;12.154;2023-04-08T12:31:23;96621.06;;;6.08;100.00
11444;BME280;5778;47.856;12.154;2023-04-08T12:33:52;96609.78;;;6.19;100.00
11444;BME280;5778;47.856;12.154;2023-04-08T12:36:20;96617.91;;;6.17;100.00
11444;BME280;5778;47.856;12.154;2023-04-08T12:38:47;96626.13;;;6.09;100.00
11444;BME280;5778;47.856;12.154;2023-04-08T12:41:15;96627.69;;;6.17;100.00
11444;BME280;5778;47.856;12.154;2023-04-08T12:43:42;96630.53;;;6.15;100.00
11444;BME280;5778;47.856;12.154;2023-04-08T12:46:08;96625.13;;;6.28;100.00
11444;BME280;5778;47.856;12.154;2023-04-08T12:48:35;96621.22;;;6.13;100.00
11444;BME280;5778;47.856;12.154;2023-04-08T12:51:02;96620.56;;;5.93;100.00
11444;BME280;5778;47.856;12.154;2023-04-08T12:53:30;96628.66;;;5.98;100.00
11444;BME280;5778;47.856;12.154;2023-04-08T12:55:57;96625.81;;;5.99;100.00
11444;BME280;5778;47.856;12.154;2023-04-08T12:58:24;96622.06;;;5.89;100.00
11444;BME280;5778;47.856;12.154;2023-04-08T13:00:51;96622.84;;;5.89;100.00
11444;BME280;5778;47.856;12.154;2023-04-08T13:03:19;96627.31;;;5.89;100.00
11444;BME280;5778;47.856;12.154;2023-04-08T13:05:46;96628.06;;;5.96;100.00
11444;BME280;5778;47.856;12.154;2023-04-08T13:08:13;96624.56;;;6.02;100.00
11444;BME280;5778;47.856;12.154;2023-04-08T13:10:43;96629.66;;;6.03;100.00
11444;BME280;5778;47.856;12.154;2023-04-08T13:13:10;96633.53;;;6.01;100.00
11444;BME280;5778;47.856;12.154;2023-04-08T13:15:38;96630.50;;;5.97;100.00
11444;BME280;5778;47.856;12.154;2023-04-08T13:18:05;96636.09;;;5.83;100.00
11444;BME280;5778;47.856;12.154;2023-04-08T13:20:32;96629.97;;;5.89;100.00
11444;BME280;5778;47.856;12.154;2023-04-08T13:22:59;96627.50;;;5.94;100.00